Time;durP1;ratioP1;P1;durP2;ratioP2;P2;SDS_P1;SDS_P2;PMS_P1;PMS_P2;Temp;Humidity;BMP_temperature;BMP_pressure;BME280_temperature;BME280_humidity;BME280_pressure;Samples;Min_cycle;Max_cycle;Signal;HPM_P1;HPM_P2
2023/08/06 00:01:57;;;;;;;1.30;1.30;;;13.70;99.90;;;;;;4180278;28;20158;-56
2023/08/06 00:04:17;;;;;;;1.20;1.00;;;13.60;99.90;;;;;;4182104;28;20363;-57
2023/08/06 00:06:37;;;;;;;0.93;0.93;;;13.60;99.90;;;;;;4173742;28;20082;-57
2023/08/06 00:08:58;;;;;;;1.20;1.10;;;13.50;99.90;;;;;;4179787;28;20099;-56
2023/08/06 00:11:18;;;;;;;1.15;1.05;;;13.50;99.90;;;;;;4181135;28;20072;-56
2023/08/06 00:13:38;;;;;;;1.20;1.10;;;13.50;99.90;;;;;;4180317;28;20356;-56
2023/08/06 00:16:09;;;;;;;1.00;1.00;;;13.40;99.90;;;;;;4179846;28;20104;-57
2023/08/06 00:18:29;;;;;;;1.38;0.93;;;13.40;99.90;;;;;;4173639;28;20087;-56
2023/08/06 00:20:49;;;;;;;1.63;1.00;;;13.50;99.90;;;;;;4178607;28;20048;-56
2023/08/06 00:23:09;;;;;;;1.65;1.00;;;13.60;99.90;;;;;;4186278;28;20084;-57
2023/08/06 00:25:28;;;;;;;2.53;1.10;;;13.50;99.90;;;;;;4177400;28;20049;-57
2023/08/06 00:27:48;;;;;;;1.27;1.10;;;13.40;99.90;;;;;;4178759;28;20096;-55
2023/08/06 00:30:08;;;;;;;1.63;1.63;;;13.50;99.90;;;;;;4181246;28;20275;-56
2023/08/06 00:32:28;;;;;;;1.15;1.00;;;13.50;99.90;;;;;;4180257;28;20109;-57
2023/08/06 00:34:50;;;;;;;1.98;1.10;;;13.50;99.90;;;;;;4179686;28;20105;-56
2023/08/06 00:37:10;;;;;;;1.83;1.45;;;13.50;99.90;;;;;;4181103;28;20233;-56
2023/08/06 00:39:29;;;;;;;4.43;1.10;;;13.50;99.90;;;;;;4180664;28;20048;-57
2023/08/06 00:41:49;;;;;;;1.40;1.30;;;13.50;99.90;;;;;;4178173;28;20091;-57
2023/08/06 00:44:10;;;;;;;1.10;1.10;;;13.20;99.90;;;;;;4177999;28;20053;-57
2023/08/06 00:46:31;;;;;;;1.70;1.58;;;13.20;99.90;;;;;;4182701;28;20045;-57
2023/08/06 00:48:51;;;;;;;1.20;1.20;;;13.10;99.90;;;;;;4180038;28;20068;-57
2023/08/06 00:51:11;;;;;;;1.20;1.20;;;12.90;99.90;;;;;;4176148;28;20052;-56
2023/08/06 00:53:31;;;;;;;1.75;1.30;;;12.80;99.90;;;;;;4179311;28;20112;-57
2023/08/06 00:55:52;;;;;;;1.38;1.02;;;12.70;99.90;;;;;;4183046;28;20040;-56
2023/08/06 00:58:13;;;;;;;1.52;1.52;;;12.70;99.90;;;;;;4182364;28;20068;-56
2023/08/06 01:00:33;;;;;;;4.53;1.60;;;12.70;99.90;;;;;;4176509;28;20084;-57
2023/08/06 01:02:53;;;;;;;1.70;1.70;;;12.70;99.90;;;;;;4179822;28;20108;-57
2023/08/06 01:05:14;;;;;;;1.30;1.30;;;12.70;99.90;;;;;;4184074;28;20091;-56
2023/08/06 01:08:15;;;;;;;2.50;1.20;;;12.80;99.90;;;;;;4183602;28;20071;-56
2023/08/06 01:11:05;;;;;;;1.30;1.30;;;12.90;99.90;;;;;;4181638;28;20087;-57
2023/08/06 01:13:47;;;;;;;1.80;1.80;;;12.80;99.90;;;;;;4173414;28;20113;-56
2023/08/06 01:16:07;;;;;;;2.22;1.95;;;12.80;99.90;;;;;;4177443;28;20078;-57
2023/08/06 01:18:27;;;;;;;2.20;2.08;;;12.80;99.90;;;;;;4179775;28;20083;-57
2023/08/06 01:20:49;;;;;;;1.52;1.35;;;12.90;99.90;;;;;;4180036;28;20113;-56
2023/08/06 01:23:09;;;;;;;1.30;1.30;;;13.00;99.90;;;;;;4179056;28;20249;-57
2023/08/06 01:26:02;;;;;;;1.65;1.65;;;13.10;99.90;;;;;;4174813;28;20071;-56
2023/08/06 01:28:32;;;;;;;4.07;1.10;;;13.00;99.90;;;;;;4171371;28;20367;-57
2023/08/06 01:30:55;;;;;;;3.40;1.20;;;13.00;99.90;;;;;;4181067;28;20408;-56
2023/08/06 01:33:19;;;;;;;1.75;1.10;;;13.00;99.90;;;;;;4179981;28;20300;-56
2023/08/06 01:35:39;;;;;;;1.20;1.20;;;13.10;99.90;;;;;;4174603;28;20084;-56
2023/08/06 01:38:03;;;;;;;1.10;1.10;;;13.20;99.90;;;;;;4174595;28;20048;-56
2023/08/06 01:40:23;;;;;;;2.67;1.10;;;13.10;99.90;;;;;;4180023;28;20044;-57
2023/08/06 01:42:43;;;;;;;1.42;1.10;;;13.10;99.90;;;;;;4181649;28;20076;-56
2023/08/06 01:45:03;;;;;;;1.20;1.20;;;13.10;99.90;;;;;;4174744;28;20115;-57
2023/08/06 01:47:23;;;;;;;1.77;1.42;;;12.80;99.90;;;;;;4180134;28;20080;-57
2023/08/06 01:49:43;;;;;;;1.65;1.17;;;12.80;99.90;;;;;;4176855;28;20236;-56
2023/08/06 01:52:03;;;;;;;3.50;1.48;;;12.80;99.90;;;;;;4178369;28;20060;-57
2023/08/06 01:54:23;;;;;;;1.20;1.20;;;12.70;99.90;;;;;;4177705;28;20102;-57
2023/08/06 01:56:43;;;;;;;2.25;1.40;;;12.70;99.90;;;;;;4176832;28;20057;-57
2023/08/06 01:59:03;;;;;;;1.20;1.20;;;12.60;99.90;;;;;;4173657;28;20091;-57
2023/08/06 02:01:25;;;;;;;1.30;1.30;;;12.60;99.90;;;;;;4184278;28;20044;-57
2023/08/06 02:03:45;;;;;;;2.15;1.55;;;12.60;99.90;;;;;;4179972;28;20100;-56
2023/08/06 02:06:05;;;;;;;1.30;1.30;;;12.60;99.90;;;;;;4185948;28;20060;-56
2023/08/06 02:08:25;;;;;;;3.72;1.40;;;12.60;99.90;;;;;;4174253;28;20064;-57
2023/08/06 02:10:45;;;;;;;1.20;1.20;;;12.50;99.90;;;;;;4179849;28;20041;-57
2023/08/06 02:13:05;;;;;;;1.27;1.27;;;12.60;99.90;;;;;;4176877;28;20056;-57
2023/08/06 02:15:25;;;;;;;1.27;1.27;;;12.60;99.90;;;;;;4173163;28;20236;-57
2023/08/06 02:17:45;;;;;;;1.48;1.48;;;12.70;99.90;;;;;;4181638;28;20039;-56
2023/08/06 02:20:06;;;;;;;1.30;1.20;;;12.60;99.90;;;;;;4177525;28;20047;-56
2023/08/06 02:22:25;;;;;;;2.22;1.30;;;12.60;99.90;;;;;;4176604;28;20101;-56
2023/08/06 02:24:45;;;;;;;1.60;1.30;;;12.60;99.90;;;;;;4177879;28;20068;-57
2023/08/06 02:27:05;;;;;;;1.20;1.20;;;12.60;99.90;;;;;;4180622;28;20045;-57
2023/08/06 02:29:25;;;;;;;2.95;1.50;;;12.70;99.90;;;;;;4185654;28;20051;-57
2023/08/06 02:31:45;;;;;;;1.55;1.45;;;12.60;99.90;;;;;;4184907;28;20051;-57
2023/08/06 02:34:05;;;;;;;1.88;1.10;;;12.60;99.90;;;;;;4182293;28;20044;-56
2023/08/06 02:36:29;;;;;;;2.42;1.30;;;12.50;99.90;;;;;;4186621;28;20072;-57
2023/08/06 02:38:48;;;;;;;2.35;1.20;;;12.60;99.90;;;;;;4175830;28;20107;-57
2023/08/06 02:41:08;;;;;;;2.90;1.25;;;12.70;99.90;;;;;;4180732;28;20079;-57
2023/08/06 02:43:28;;;;;;;2.40;1.52;;;12.80;99.90;;;;;;4179808;28;20049;-57
2023/08/06 02:45:48;;;;;;;1.50;1.50;;;12.80;99.90;;;;;;4177626;28;20048;-56
2023/08/06 02:48:08;;;;;;;1.52;1.42;;;12.70;99.90;;;;;;4181597;28;20414;-57
2023/08/06 02:50:28;;;;;;;1.33;1.33;;;12.80;99.90;;;;;;4179987;28;20443;-57
2023/08/06 02:52:49;;;;;;;1.75;1.65;;;12.80;99.90;;;;;;4182584;28;20107;-57
2023/08/06 02:55:09;;;;;;;2.35;1.58;;;12.90;99.90;;;;;;4179879;28;20060;-57
2023/08/06 02:57:30;;;;;;;1.33;1.33;;;12.90;99.90;;;;;;4179521;28;20067;-57
2023/08/06 02:59:49;;;;;;;3.53;1.90;;;13.00;99.90;;;;;;4176869;28;20053;-57
2023/08/06 03:02:09;;;;;;;5.00;2.15;;;12.90;99.90;;;;;;4187244;28;20044;-57
2023/08/06 03:04:29;;;;;;;7.53;2.03;;;12.80;99.90;;;;;;4180235;28;20044;-57
2023/08/06 03:06:50;;;;;;;5.50;1.60;;;12.80;99.90;;;;;;4185879;28;20363;-57
2023/08/06 03:09:10;;;;;;;4.78;2.28;;;12.70;99.90;;;;;;4175399;28;20052;-57
2023/08/06 03:11:30;;;;;;;3.60;1.92;;;12.70;99.90;;;;;;4181095;28;20105;-57
2023/08/06 03:13:51;;;;;;;2.20;1.77;;;12.60;99.90;;;;;;4177677;28;20048;-57
2023/08/06 03:16:10;;;;;;;3.92;1.83;;;12.50;99.90;;;;;;4174840;28;20049;-57
2023/08/06 03:18:30;;;;;;;1.85;1.85;;;12.60;99.90;;;;;;4181038;28;20086;-57
2023/08/06 03:20:50;;;;;;;1.80;1.50;;;12.60;99.90;;;;;;4176951;28;20056;-57
2023/08/06 03:23:10;;;;;;;1.95;1.50;;;12.60;99.90;;;;;;4175871;28;20140;-56
2023/08/06 03:25:30;;;;;;;12.20;1.85;;;12.70;99.90;;;;;;4179655;28;20088;-57
2023/08/06 03:27:50;;;;;;;25.65;2.00;;;12.60;99.90;;;;;;4179544;28;20240;-57
2023/08/06 03:30:10;;;;;;;1.35;1.35;;;12.70;99.90;;;;;;4186283;28;20071;-57
2023/08/06 03:32:30;;;;;;;47.72;3.13;;;12.70;99.90;;;;;;4182483;28;20079;-57
2023/08/06 03:34:51;;;;;;;20.15;1.80;;;12.60;99.90;;;;;;4180753;28;20044;-57
2023/08/06 03:37:11;;;;;;;3.55;1.40;;;12.60;99.90;;;;;;4182919;28;20092;-57
2023/08/06 03:39:31;;;;;;;17.05;2.25;;;12.70;99.90;;;;;;4174512;28;20087;-57
2023/08/06 03:41:51;;;;;;;12.15;2.20;;;12.60;99.90;;;;;;4180876;28;20075;-57
2023/08/06 03:44:11;;;;;;;2.05;1.30;;;12.60;99.90;;;;;;4178877;28;20080;-57
2023/08/06 03:46:34;;;;;;;1.70;1.70;;;12.60;99.90;;;;;;4175156;28;20071;-57
2023/08/06 03:48:54;;;;;;;10.60;1.95;;;12.60;99.90;;;;;;4178143;28;20103;-57
2023/08/06 03:51:14;;;;;;;5.90;1.60;;;12.60;99.90;;;;;;4177625;28;20253;-57
2023/08/06 03:53:34;;;;;;;6.47;1.55;;;12.60;99.90;;;;;;4175589;28;20414;-57
2023/08/06 03:55:55;;;;;;;2.67;1.58;;;12.60;99.90;;;;;;4178306;28;20044;-57
2023/08/06 03:58:15;;;;;;;32.92;2.38;;;12.60;99.90;;;;;;4179674;28;20122;-57
2023/08/06 04:00:35;;;;;;;54.70;2.47;;;12.60;99.90;;;;;;4185508;28;20104;-57
2023/08/06 04:02:55;;;;;;;3.50;1.45;;;12.50;99.90;;;;;;4176404;28;20398;-57
2023/08/06 04:05:15;;;;;;;16.63;1.83;;;12.50;99.90;;;;;;4178834;28;20052;-58
2023/08/06 04:07:35;;;;;;;24.30;2.30;;;12.50;99.90;;;;;;4181411;28;20275;-57
2023/08/06 04:09:58;;;;;;;6.30;1.55;;;12.60;99.90;;;;;;4176722;28;20125;-57
2023/08/06 04:12:18;;;;;;;28.48;2.53;;;12.70;99.90;;;;;;4180580;28;20087;-57
2023/08/06 04:14:40;;;;;;;1.63;1.52;;;12.70;99.90;;;;;;4177467;28;20275;-57
2023/08/06 04:17:00;;;;;;;47.08;2.92;;;12.60;99.90;;;;;;4174458;28;20064;-57
2023/08/06 04:19:20;;;;;;;2.67;1.55;;;12.50;99.90;;;;;;4179611;28;20083;-57
2023/08/06 04:21:39;;;;;;;9.50;1.73;;;12.50;99.90;;;;;;4177022;28;20048;-57
2023/08/06 04:23:59;;;;;;;4.97;1.42;;;12.70;99.90;;;;;;4176123;28;20044;-58
2023/08/06 04:26:19;;;;;;;13.38;1.70;;;12.80;99.90;;;;;;4174477;28;20096;-57
2023/08/06 04:28:39;;;;;;;29.25;2.42;;;12.70;99.90;;;;;;4179888;28;20063;-57
2023/08/06 04:30:59;;;;;;;4.93;1.77;;;12.50;99.90;;;;;;4185603;28;20052;-58
2023/08/06 04:33:20;;;;;;;20.52;2.00;;;12.50;99.90;;;;;;4174400;28;20080;-58
2023/08/06 04:35:40;;;;;;;2.08;2.05;;;12.50;99.90;;;;;;4179444;28;20044;-58
2023/08/06 04:38:00;;;;;;;1.65;1.27;;;12.70;99.90;;;;;;4180402;28;20049;-58
2023/08/06 04:40:20;;;;;;;6.10;1.60;;;12.60;99.90;;;;;;4172973;28;20056;-57
2023/08/06 04:42:39;;;;;;;3.45;1.48;;;12.60;99.90;;;;;;4179748;28;20044;-58
2023/08/06 04:45:01;;;;;;;71.78;3.53;;;12.60;99.90;;;;;;4178921;28;20088;-57
2023/08/06 04:47:21;;;;;;;23.10;2.80;;;12.60;99.90;;;;;;4180504;28;20044;-57
2023/08/06 04:49:41;;;;;;;2.95;1.67;;;12.70;99.90;;;;;;4175832;28;20067;-58
2023/08/06 04:52:01;;;;;;;1.80;1.70;;;12.70;99.90;;;;;;4177800;28;20056;-57
2023/08/06 04:54:21;;;;;;;1.50;1.50;;;12.80;99.90;;;;;;4184101;28;20271;-57
2023/08/06 04:56:41;;;;;;;3.72;1.92;;;12.80;99.90;;;;;;4177096;28;20267;-57
2023/08/06 04:59:01;;;;;;;8.25;1.98;;;13.00;99.90;;;;;;4180923;28;20237;-58
2023/08/06 05:01:21;;;;;;;14.23;1.98;;;12.90;99.90;;;;;;4184197;28;20059;-58
2023/08/06 05:03:41;;;;;;;3.65;1.75;;;12.90;99.90;;;;;;4175762;28;20083;-58
2023/08/06 05:06:02;;;;;;;8.00;1.80;;;13.00;99.90;;;;;;4177715;28;20039;-58
2023/08/06 05:08:21;;;;;;;56.05;2.60;;;13.00;99.90;;;;;;4180225;28;20053;-58
2023/08/06 05:10:43;;;;;;;1.80;1.50;;;13.00;99.90;;;;;;4174439;28;20137;-57
2023/08/06 05:13:03;;;;;;;5.82;1.42;;;13.00;99.90;;;;;;4177466;28;20052;-57
2023/08/06 05:15:25;;;;;;;3.08;1.88;;;13.00;99.90;;;;;;4179798;28;20055;-58
2023/08/06 05:17:45;;;;;;;26.77;2.42;;;13.10;99.90;;;;;;4182416;28;20048;-57
2023/08/06 05:20:06;;;;;;;110.65;4.90;;;13.10;99.90;;;;;;4177673;28;20091;-57
2023/08/06 05:22:25;;;;;;;22.75;2.38;;;13.00;99.90;;;;;;4177206;28;20279;-58
2023/08/06 05:24:45;;;;;;;72.82;3.33;;;12.90;99.90;;;;;;4176576;28;20056;-58
2023/08/06 05:27:06;;;;;;;47.03;3.08;;;12.70;99.90;;;;;;4183748;28;20391;-58
2023/08/06 05:29:27;;;;;;;1.40;1.40;;;12.80;99.90;;;;;;4178760;28;20087;-57
2023/08/06 05:31:47;;;;;;;15.65;1.80;;;12.90;99.90;;;;;;4183789;28;20040;-57
2023/08/06 05:34:07;;;;;;;91.97;4.55;;;13.10;99.90;;;;;;4174159;28;20044;-58
2023/08/06 05:36:27;;;;;;;1.60;1.50;;;13.10;99.90;;;;;;4178211;28;20055;-57
2023/08/06 05:38:49;;;;;;;4.60;2.03;;;13.20;99.90;;;;;;4177239;28;20080;-57
2023/08/06 05:41:09;;;;;;;1.45;1.23;;;13.30;99.90;;;;;;4173728;28;20307;-57
2023/08/06 05:43:29;;;;;;;6.38;1.33;;;13.40;99.90;;;;;;4178488;28;20248;-58
2023/08/06 05:45:50;;;;;;;2.35;1.40;;;13.40;99.90;;;;;;4172140;28;20383;-58
2023/08/06 05:48:10;;;;;;;1.33;1.33;;;13.40;99.90;;;;;;4173474;28;20045;-58
2023/08/06 05:50:30;;;;;;;1.75;1.65;;;13.40;99.90;;;;;;4173088;28;20048;-58
2023/08/06 05:52:49;;;;;;;2.35;1.38;;;13.50;99.90;;;;;;4180669;28;20059;-59
2023/08/06 05:55:09;;;;;;;9.07;1.40;;;13.70;99.90;;;;;;4186958;28;20044;-58
2023/08/06 05:57:29;;;;;;;1.30;1.30;;;13.70;99.90;;;;;;4186056;28;20060;-58
2023/08/06 05:59:49;;;;;;;1.30;1.30;;;13.70;99.90;;;;;;4182510;28;20363;-57
2023/08/06 06:02:08;;;;;;;1.20;1.15;;;13.80;99.90;;;;;;4185714;28;20100;-58
2023/08/06 06:04:29;;;;;;;2.50;1.30;;;13.90;99.90;;;;;;4176016;28;20096;-58
2023/08/06 06:06:49;;;;;;;1.40;1.40;;;14.00;99.90;;;;;;4178803;28;20044;-58
2023/08/06 06:09:09;;;;;;;1.52;1.30;;;13.90;99.90;;;;;;4179921;28;20080;-58
2023/08/06 06:11:28;;;;;;;3.67;1.60;;;13.80;99.90;;;;;;4181139;28;20071;-57
2023/08/06 06:13:52;;;;;;;1.25;1.25;;;13.90;99.90;;;;;;4177815;28;20250;-57
2023/08/06 06:16:12;;;;;;;1.40;1.40;;;14.00;99.90;;;;;;4184128;28;20232;-57
2023/08/06 06:18:32;;;;;;;1.17;1.10;;;14.10;99.90;;;;;;4178044;28;20053;-57
2023/08/06 06:20:52;;;;;;;1.30;1.30;;;14.10;99.90;;;;;;4179830;28;20052;-57
2023/08/06 06:23:11;;;;;;;1.30;1.30;;;14.00;99.90;;;;;;4180131;28;20059;-57
2023/08/06 06:25:32;;;;;;;1.40;1.40;;;14.00;99.90;;;;;;4185727;28;20450;-57
2023/08/06 06:27:52;;;;;;;1.30;1.30;;;14.20;99.90;;;;;;4174613;28;20123;-57
2023/08/06 06:30:12;;;;;;;3.63;1.35;;;14.10;99.90;;;;;;4179116;28;20151;-58
2023/08/06 06:32:32;;;;;;;2.00;1.63;;;14.30;99.90;;;;;;4184021;28;20051;-58
2023/08/06 06:34:52;;;;;;;1.40;1.40;;;14.30;99.90;;;;;;4178124;28;20045;-58
2023/08/06 06:37:11;;;;;;;1.52;1.50;;;14.30;99.90;;;;;;4181465;28;20079;-58
2023/08/06 06:39:31;;;;;;;1.67;1.67;;;14.40;99.90;;;;;;4180320;28;20048;-57
2023/08/06 06:41:51;;;;;;;2.50;1.40;;;14.40;99.90;;;;;;4180446;28;20060;-57
2023/08/06 06:44:11;;;;;;;1.30;1.30;;;14.40;99.90;;;;;;4174814;28;20087;-57
2023/08/06 06:46:31;;;;;;;1.42;1.42;;;14.40;99.90;;;;;;4179488;28;20072;-58
2023/08/06 06:48:51;;;;;;;3.33;1.30;;;14.50;99.90;;;;;;4182057;28;20091;-57
2023/08/06 06:51:11;;;;;;;1.20;1.20;;;14.60;99.90;;;;;;4181750;28;20052;-58
2023/08/06 06:53:31;;;;;;;1.40;1.40;;;14.60;99.90;;;;;;4182372;28;20087;-66
2023/08/06 06:55:50;;;;;;;1.35;1.35;;;14.60;99.90;;;;;;4183650;28;20079;-66
2023/08/06 06:58:10;;;;;;;1.23;1.13;;;14.80;99.90;;;;;;4185694;28;20405;-66
2023/08/06 07:00:29;;;;;;;1.10;1.10;;;15.40;99.90;;;;;;4181739;28;20049;-66
2023/08/06 07:02:49;;;;;;;1.00;1.00;;;15.50;99.90;;;;;;4179724;28;20394;-66
2023/08/06 07:05:10;;;;;;;1.10;1.10;;;15.90;99.90;;;;;;4187269;28;20094;-66
2023/08/06 07:07:30;;;;;;;1.95;1.35;;;16.00;99.90;;;;;;4179434;28;20117;-66
2023/08/06 07:09:50;;;;;;;1.00;1.00;;;16.20;99.90;;;;;;4178956;28;20116;-66
2023/08/06 07:12:10;;;;;;;1.10;1.10;;;16.30;99.90;;;;;;4183587;28;20232;-66
2023/08/06 07:14:30;;;;;;;1.13;1.13;;;16.40;99.90;;;;;;4179454;28;20052;-66
2023/08/06 07:16:50;;;;;;;0.90;0.90;;;16.70;99.90;;;;;;4180723;28;20052;-66
2023/08/06 07:19:10;;;;;;;0.90;0.90;;;16.90;99.90;;;;;;4181729;28;20136;-57
2023/08/06 07:21:30;;;;;;;1.00;1.00;;;17.30;99.90;;;;;;4182249;28;20048;-57
2023/08/06 07:23:50;;;;;;;0.90;0.90;;;17.30;99.90;;;;;;4182480;28;20079;-58
2023/08/06 07:26:10;;;;;;;0.90;0.90;;;17.30;99.90;;;;;;4180130;28;20048;-57
2023/08/06 07:28:30;;;;;;;0.90;0.90;;;17.30;99.90;;;;;;4182107;28;20387;-57
2023/08/06 07:30:50;;;;;;;0.90;0.90;;;17.50;99.90;;;;;;4179623;28;20068;-57
2023/08/06 07:33:10;;;;;;;0.98;0.90;;;18.00;99.90;;;;;;4178959;28;20048;-57
2023/08/06 07:35:30;;;;;;;0.80;0.80;;;18.10;99.90;;;;;;4178868;28;20414;-58
2023/08/06 07:37:50;;;;;;;0.77;0.77;;;18.40;99.90;;;;;;4181607;28;20075;-58
2023/08/06 07:40:11;;;;;;;0.90;0.90;;;18.60;99.90;;;;;;4184174;28;20122;-58
2023/08/06 07:42:30;;;;;;;0.95;0.80;;;18.80;99.90;;;;;;4179469;28;20121;-57
2023/08/06 07:44:56;;;;;;;0.75;0.75;;;19.00;99.90;;;;;;4181702;28;20051;-57
2023/08/06 07:47:16;;;;;;;0.70;0.70;;;19.50;99.90;;;;;;4179221;28;20043;-58
2023/08/06 07:49:36;;;;;;;0.80;0.80;;;19.60;99.90;;;;;;4181228;28;20060;-58
2023/08/06 07:51:56;;;;;;;0.80;0.80;;;19.90;99.90;;;;;;4180567;28;20080;-57
2023/08/06 07:54:15;;;;;;;0.80;0.80;;;20.30;99.90;;;;;;4181193;28;20083;-58
2023/08/06 07:56:36;;;;;;;1.20;0.70;;;20.20;99.90;;;;;;4181861;28;20095;-58
2023/08/06 07:58:56;;;;;;;0.70;0.70;;;20.30;99.90;;;;;;4176736;28;20080;-58
2023/08/06 08:01:16;;;;;;;1.02;0.70;;;20.40;99.90;;;;;;4181839;28;20040;-58
2023/08/06 08:03:37;;;;;;;0.80;0.80;;;20.30;99.90;;;;;;4184828;28;20371;-58
2023/08/06 08:06:00;;;;;;;0.77;0.70;;;20.50;99.90;;;;;;4179507;28;20071;-58
2023/08/06 08:08:19;;;;;;;;;;;20.60;99.90;;;;;;4179294;28;20088;-58
2023/08/06 08:10:40;;;;;;;0.80;0.80;;;20.90;99.90;;;;;;4179978;28;19932;-58
2023/08/06 08:13:04;;;;;;;1.02;0.80;;;20.60;99.90;;;;;;4180568;28;20394;-58
2023/08/06 08:15:26;;;;;;;0.80;0.80;;;20.70;99.90;;;;;;4174702;28;20275;-58
2023/08/06 08:17:47;;;;;;;0.70;0.70;;;20.80;99.90;;;;;;4181678;28;20088;-58
2023/08/06 08:20:07;;;;;;;0.70;0.70;;;21.30;99.90;;;;;;4181166;28;20059;-58
2023/08/06 08:22:27;;;;;;;0.73;0.70;;;21.50;99.90;;;;;;4177748;28;20048;-58
2023/08/06 08:24:47;;;;;;;0.70;0.70;;;22.20;99.90;;;;;;4178314;28;20051;-58
2023/08/06 08:27:06;;;;;;;0.80;0.80;;;22.20;99.90;;;;;;4181046;28;20048;-58
2023/08/06 08:29:27;;;;;;;0.70;0.70;;;22.40;99.90;;;;;;4186889;28;20043;-58
2023/08/06 08:31:49;;;;;;;1.33;0.60;;;22.70;99.90;;;;;;4178919;28;20096;-59
2023/08/06 08:34:09;;;;;;;1.10;0.63;;;22.60;99.90;;;;;;4179349;28;20059;-58
2023/08/06 08:36:29;;;;;;;0.70;0.70;;;22.80;99.90;;;;;;4184733;28;20079;-58
2023/08/06 08:38:53;;;;;;;0.82;0.70;;;23.30;99.90;;;;;;4178802;28;20100;-58
2023/08/06 08:41:13;;;;;;;0.63;0.63;;;23.10;99.90;;;;;;4179550;28;20070;-58
2023/08/06 08:43:33;;;;;;;2.85;1.02;;;23.30;99.90;;;;;;4180914;28;20059;-59
2023/08/06 08:46:00;;;;;;;1.33;0.60;;;23.10;99.90;;;;;;4180979;28;20056;-59
2023/08/06 08:48:21;;;;;;;1.40;0.80;;;22.80;99.90;;;;;;4181572;28;20048;-59
2023/08/06 08:50:43;;;;;;;1.77;0.77;;;23.10;99.90;;;;;;4180812;28;20052;-58
2023/08/06 08:53:03;;;;;;;1.00;0.90;;;23.30;99.90;;;;;;4182851;28;20055;-58
2023/08/06 08:55:23;;;;;;;2.60;0.70;;;23.50;99.90;;;;;;4178928;28;20102;-59
2023/08/06 08:57:43;;;;;;;0.95;0.70;;;23.80;99.90;;;;;;4179109;28;20441;-59
2023/08/06 09:00:04;;;;;;;1.73;1.05;;;24.10;99.90;;;;;;4181056;28;20098;-59
2023/08/06 09:02:27;;;;;;;1.02;0.95;;;24.10;99.90;;;;;;4177386;28;20359;-59
2023/08/06 09:04:49;;;;;;;0.88;0.88;;;24.10;99.90;;;;;;4177402;28;20053;-59
2023/08/06 09:07:12;;;;;;;2.33;0.70;;;24.20;99.90;;;;;;4178566;28;20052;-59
2023/08/06 09:09:37;;;;;;;3.22;0.70;;;24.30;99.90;;;;;;4179082;28;20087;-59
2023/08/06 09:12:02;;;;;;;3.03;0.70;;;24.50;99.90;;;;;;4180128;28;20310;-59
2023/08/06 09:14:22;;;;;;;2.22;0.80;;;24.70;99.90;;;;;;4179967;28;20244;-59
2023/08/06 09:16:43;;;;;;;1.63;0.80;;;24.70;99.90;;;;;;4181348;28;20040;-59
2023/08/06 09:19:10;;;;;;;1.00;0.80;;;24.80;99.90;;;;;;4179934;28;20047;-59
2023/08/06 09:21:30;;;;;;;2.33;0.77;;;25.00;99.90;;;;;;4179254;28;20121;-60
2023/08/06 09:23:50;;;;;;;1.55;0.80;;;25.20;99.90;;;;;;4178687;28;20076;-59
2023/08/06 09:26:13;;;;;;;0.85;0.80;;;25.00;99.90;;;;;;4179536;28;20043;-60
2023/08/06 09:28:42;;;;;;;4.57;0.75;;;25.20;99.90;;;;;;4183928;28;20048;-60
2023/08/06 09:31:02;;;;;;;2.92;0.80;;;25.30;99.90;;;;;;4175987;28;20375;-58
2023/08/06 09:33:23;;;;;;;2.25;0.80;;;25.20;98.80;;;;;;4180302;28;20092;-58
2023/08/06 09:35:43;;;;;;;1.77;0.80;;;25.70;99.40;;;;;;4178151;28;20079;-57
2023/08/06 09:38:10;;;;;;;3.03;0.70;;;25.80;97.40;;;;;;4179016;28;20047;-58
2023/08/06 09:40:31;;;;;;;1.98;0.90;;;25.90;97.80;;;;;;4178571;28;20076;-58
2023/08/06 09:42:51;;;;;;;4.40;0.60;;;26.10;96.70;;;;;;4179656;28;20052;-58
2023/08/06 09:45:13;;;;;;;1.95;0.70;;;26.20;95.90;;;;;;4179941;28;20088;-58
2023/08/06 09:47:33;;;;;;;1.40;0.70;;;26.60;98.30;;;;;;4180260;28;20048;-58
2023/08/06 09:49:53;;;;;;;1.17;1.08;;;26.90;96.40;;;;;;4179427;28;20135;-58
2023/08/06 09:52:15;;;;;;;1.02;0.77;;;26.60;95.30;;;;;;4183770;28;20105;-58
2023/08/06 09:54:38;;;;;;;6.95;1.23;;;26.10;96.20;;;;;;4174590;28;20285;-58
2023/08/06 09:56:58;;;;;;;1.10;0.70;;;26.00;95.80;;;;;;4178397;28;20360;-59
2023/08/06 09:59:19;;;;;;;1.98;1.13;;;26.00;96.50;;;;;;4180181;28;20060;-58
2023/08/06 10:01:39;;;;;;;1.48;0.80;;;26.40;97.10;;;;;;4184468;28;20371;-58
2023/08/06 10:04:01;;;;;;;0.73;0.73;;;26.90;95.90;;;;;;4175381;28;20248;-58
2023/08/06 10:06:28;;;;;;;1.88;1.00;;;27.20;95.40;;;;;;4178670;28;20044;-58
2023/08/06 10:08:48;;;;;;;1.38;0.70;;;27.40;94.10;;;;;;4183629;28;20292;-58
2023/08/06 10:11:08;;;;;;;2.13;0.70;;;27.80;95.30;;;;;;4177117;28;20056;-58
2023/08/06 10:13:28;;;;;;;1.80;0.70;;;27.70;94.50;;;;;;4180439;28;20068;-58
2023/08/06 10:15:50;;;;;;;6.97;1.13;;;27.70;93.70;;;;;;4178690;28;20148;-58
2023/08/06 10:18:11;;;;;;;1.52;1.08;;;27.30;93.30;;;;;;4179347;28;20087;-59
2023/08/06 10:20:35;;;;;;;2.75;2.00;;;27.10;93.80;;;;;;4179470;28;20048;-58
2023/08/06 10:23:05;;;;;;;5.97;0.90;;;27.00;94.00;;;;;;4179462;28;20080;-59
2023/08/06 10:25:25;;;;;;;4.65;0.90;;;26.80;93.60;;;;;;4180284;28;20056;-57
2023/08/06 10:27:48;;;;;;;3.15;0.60;;;26.40;93.40;;;;;;4177387;28;20087;-58
2023/08/06 10:30:31;;;;;;;1.95;0.70;;;26.00;94.70;;;;;;4177601;28;20075;-58
2023/08/06 10:32:53;;;;;;;1.15;0.60;;;25.90;94.40;;;;;;4179262;28;20053;-57
2023/08/06 10:35:32;;;;;;;;;;;25.50;94.60;;;;;;4180694;28;20044;-58
2023/08/06 10:37:52;;;;;;;4.43;1.60;;;25.20;94.30;;;;;;4178245;28;19931;-58
2023/08/06 10:40:21;;;;;;;1.20;0.70;;;25.10;94.80;;;;;;4181633;28;20103;-57
2023/08/06 10:42:41;;;;;;;1.00;0.98;;;24.90;94.90;;;;;;4183217;28;20051;-58
2023/08/06 10:45:20;;;;;;;1.05;0.70;;;24.60;94.90;;;;;;4180722;28;20247;-57
2023/08/06 10:47:40;;;;;;;3.70;0.80;;;24.20;95.80;;;;;;4181426;28;20329;-58
2023/08/06 10:50:03;;;;;;;1.73;0.70;;;24.30;95.50;;;;;;4181624;28;20040;-58
2023/08/06 10:52:23;;;;;;;1.67;0.70;;;24.80;95.60;;;;;;4180067;28;20161;-57
2023/08/06 10:54:44;;;;;;;1.58;0.70;;;25.00;94.20;;;;;;4177034;28;20044;-58
2023/08/06 10:57:10;;;;;;;4.93;1.15;;;25.50;94.80;;;;;;4183185;28;20087;-57
2023/08/06 10:59:29;;;;;;;4.20;0.80;;;25.90;93.70;;;;;;4182483;28;20053;-58
2023/08/06 11:01:50;;;;;;;1.30;1.00;;;25.80;93.70;;;;;;4178946;28;20040;-58
2023/08/06 11:04:15;;;;;;;0.82;0.70;;;25.50;94.20;;;;;;4180407;28;20053;-58
2023/08/06 11:06:35;;;;;;;0.90;0.80;;;25.30;94.40;;;;;;4181048;28;20154;-58
2023/08/06 11:08:55;;;;;;;2.15;0.80;;;25.60;93.90;;;;;;4181080;28;20410;-58
2023/08/06 11:11:16;;;;;;;1.13;0.73;;;25.70;93.60;;;;;;4181819;28;20044;-57
2023/08/06 11:13:37;;;;;;;1.98;0.70;;;25.50;93.70;;;;;;4183405;28;20271;-58
2023/08/06 11:15:57;;;;;;;0.85;0.70;;;25.20;94.10;;;;;;4182442;28;20048;-58
2023/08/06 11:18:17;;;;;;;1.60;0.90;;;24.90;94.80;;;;;;4179393;28;20047;-58
2023/08/06 11:20:38;;;;;;;3.35;1.25;;;25.20;94.30;;;;;;4179247;28;20112;-57
2023/08/06 11:22:59;;;;;;;0.70;0.70;;;25.30;94.00;;;;;;4182355;28;20048;-57
2023/08/06 11:25:21;;;;;;;2.72;0.85;;;25.60;94.60;;;;;;4181067;28;20049;-57
2023/08/06 11:27:41;;;;;;;;;;;25.70;93.40;;;;;;4179837;28;20303;-58
2023/08/06 11:30:01;;;;;;;1.35;0.70;;;25.90;94.50;;;;;;4179561;28;20159;-57
2023/08/06 11:32:21;;;;;;;3.00;0.68;;;26.40;94.40;;;;;;4184916;28;20060;-58
2023/08/06 11:34:41;;;;;;;1.83;0.70;;;26.70;93.40;;;;;;4179153;28;20236;-58
2023/08/06 11:37:05;;;;;;;0.93;0.60;;;26.30;92.70;;;;;;4177933;28;20056;-58
2023/08/06 11:39:25;;;;;;;1.10;0.80;;;25.70;93.00;;;;;;4181256;28;20052;-58
2023/08/06 11:41:45;;;;;;;1.90;0.73;;;25.70;93.30;;;;;;4179548;28;20036;-58
2023/08/06 11:44:04;;;;;;;2.50;0.80;;;25.80;93.40;;;;;;4182246;28;20058;-57
2023/08/06 11:46:25;;;;;;;4.15;0.80;;;26.40;92.80;;;;;;4181172;28;20090;-58
2023/08/06 11:48:56;;;;;;;0.73;0.70;;;26.50;92.70;;;;;;4183789;28;20048;-58
2023/08/06 11:51:16;;;;;;;1.48;0.75;;;27.00;92.90;;;;;;4180132;28;20406;-58
2023/08/06 11:53:36;;;;;;;0.77;0.60;;;27.30;91.70;;;;;;4178282;28;20109;-58
2023/08/06 11:55:55;;;;;;;0.60;0.60;;;27.30;90.90;;;;;;4182761;28;20068;-58
2023/08/06 11:58:17;;;;;;;3.03;0.60;;;27.50;93.30;;;;;;4177741;28;20052;-57
2023/08/06 12:00:37;;;;;;;2.92;0.88;;;27.60;90.80;;;;;;4177689;28;20112;-58
2023/08/06 12:02:57;;;;;;;1.95;0.60;;;27.90;92.60;;;;;;4179091;28;20083;-58
2023/08/06 12:05:20;;;;;;;1.30;0.60;;;28.00;91.50;;;;;;4183720;28;20292;-58
2023/08/06 12:07:42;;;;;;;2.28;1.08;;;28.00;91.10;;;;;;4181381;28;20146;-58
2023/08/06 12:10:02;;;;;;;0.70;0.70;;;27.90;92.20;;;;;;4182405;28;20367;-58
2023/08/06 12:12:23;;;;;;;0.60;0.60;;;28.10;91.30;;;;;;4181566;28;20052;-58
2023/08/06 12:14:43;;;;;;;2.45;0.60;;;28.40;90.30;;;;;;4180667;28;20052;-57